Time;durP1;ratioP1;P1;durP2;ratioP2;P2;SDS_P1;SDS_P2;PMS_P1;PMS_P2;Temp;Humidity;BMP_temperature;BMP_pressure;BME280_temperature;BME280_humidity;BME280_pressure;Samples;Min_cycle;Max_cycle;Signal;HPM_P1;HPM_P2
2021/01/02 00:00:16;;;;;;;38.10;28.23;;;6.50;99.90;;;;;;2103895;28;20026;-74
2021/01/02 00:01:18;;;;;;;39.13;30.65;;;6.50;99.90;;;;;;2104580;28;20023;-73
2021/01/02 00:02:22;;;;;;;38.58;29.55;;;6.50;99.90;;;;;;2104643;28;20024;-73
2021/01/02 00:03:48;;;;;;;36.28;29.13;;;6.40;99.90;;;;;;2104483;28;20031;-73
2021/01/02 00:05:05;;;;;;;33.25;27.42;;;6.50;99.90;;;;;;2104064;28;20115;-74
2021/01/02 00:06:31;;;;;;;38.47;28.05;;;6.40;99.90;;;;;;2104108;28;20031;-75
2021/01/02 00:08:09;;;;;;;36.83;27.65;;;6.40;99.90;;;;;;2104631;28;20357;-74
2021/01/02 00:09:15;;;;;;;34.22;26.88;;;6.40;99.90;;;;;;2104948;28;20059;-73
2021/01/02 00:10:20;;;;;;;34.65;26.98;;;6.40;99.90;;;;;;2104326;28;20033;-74
2021/01/02 00:11:42;;;;;;;34.97;28.02;;;6.40;99.90;;;;;;2104586;28;20031;-75
2021/01/02 00:13:22;;;;;;;36.45;28.38;;;6.40;99.90;;;;;;2104655;28;20030;-73
2021/01/02 00:14:43;;;;;;;35.63;28.95;;;6.30;99.90;;;;;;2094209;28;20037;-73
2021/01/02 00:16:18;;;;;;;36.47;27.05;;;6.30;99.90;;;;;;2104477;28;20031;-74
2021/01/02 00:17:56;;;;;;;36.75;27.48;;;6.30;99.90;;;;;;2089900;28;20035;-73
2021/01/02 00:19:07;;;;;;;36.40;26.92;;;6.30;99.90;;;;;;2104394;28;20373;-74
2021/01/02 00:20:12;;;;;;;32.42;25.98;;;6.30;99.90;;;;;;2104459;28;20099;-74
2021/01/02 00:21:24;;;;;;;48.88;27.25;;;6.30;99.90;;;;;;2104609;28;20016;-74
2021/01/02 00:22:57;;;;;;;36.33;28.02;;;6.40;99.90;;;;;;2104805;28;20024;-74
2021/01/02 00:24:03;;;;;;;30.63;25.73;;;6.40;99.90;;;;;;2104603;28;20372;-74
2021/01/02 00:25:09;;;;;;;36.63;28.55;;;6.40;99.90;;;;;;2104461;28;20054;-74
2021/01/02 00:26:36;;;;;;;41.83;29.92;;;6.40;99.90;;;;;;2104612;28;20055;-74
2021/01/02 00:27:57;;;;;;;33.15;26.92;;;6.40;99.90;;;;;;2104382;28;20032;-74
2021/01/02 00:29:01;;;;;;;37.00;27.63;;;6.40;99.90;;;;;;2104614;28;20020;-74
2021/01/02 00:30:02;;;;;;;35.95;27.95;;;6.40;99.90;;;;;;2104605;28;20246;-73
2021/01/02 00:31:02;;;;;;;32.85;27.13;;;6.40;99.90;;;;;;2104433;28;20518;-73
2021/01/02 00:32:12;;;;;;;38.05;29.15;;;6.40;99.90;;;;;;2104504;28;20055;-74
2021/01/02 00:33:20;;;;;;;35.80;27.20;;;6.40;99.90;;;;;;2104426;28;20012;-74
2021/01/02 00:34:54;;;;;;;35.08;28.15;;;6.40;99.90;;;;;;2104649;28;20020;-73
2021/01/02 00:36:05;;;;;;;36.30;27.02;;;6.40;99.90;;;;;;2104698;28;20024;-74
2021/01/02 00:37:08;;;;;;;36.25;27.42;;;6.40;99.90;;;;;;2104550;28;20432;-74
2021/01/02 00:38:11;;;;;;;36.53;29.10;;;6.40;99.90;;;;;;2103522;28;20028;-73
2021/01/02 00:39:31;;;;;;;32.35;27.45;;;6.40;99.90;;;;;;2103758;28;20420;-74
2021/01/02 00:40:34;;;;;;;37.65;28.60;;;6.40;99.90;;;;;;2104323;28;20024;-74
2021/01/02 00:41:35;;;;;;;40.28;29.63;;;6.30;99.90;;;;;;2104634;28;20024;-74
2021/01/02 00:42:40;;;;;;;35.78;28.40;;;6.40;99.90;;;;;;2103897;28;20068;-74
2021/01/02 00:43:46;;;;;;;34.45;28.42;;;6.40;99.90;;;;;;2103437;28;20024;-74
2021/01/02 00:44:47;;;;;;;37.53;29.75;;;6.30;99.90;;;;;;2104586;28;20016;-74
2021/01/02 00:45:47;;;;;;;35.63;28.13;;;6.40;99.90;;;;;;2103581;28;20066;-73
2021/01/02 00:46:48;;;;;;;38.25;28.40;;;6.30;99.90;;;;;;2103947;28;20027;-74
2021/01/02 00:47:50;;;;;;;35.38;28.70;;;6.30;99.90;;;;;;2104374;28;20082;-74
2021/01/02 00:48:51;;;;;;;34.97;29.13;;;6.30;99.90;;;;;;2104523;28;20025;-74
2021/01/02 00:49:54;;;;;;;36.55;30.38;;;6.30;99.90;;;;;;2103351;28;20050;-73
2021/01/02 00:50:59;;;;;;;41.47;30.35;;;6.40;99.90;;;;;;2103866;28;20027;-74
2021/01/02 00:52:19;;;;;;;35.97;29.20;;;6.40;99.90;;;;;;2104461;28;20023;-74
2021/01/02 00:53:38;;;;;;;38.88;30.38;;;6.30;99.90;;;;;;2104150;28;20384;-74
2021/01/02 00:54:54;;;;;;;36.92;28.30;;;6.30;99.90;;;;;;2104416;28;20064;-74
2021/01/02 00:55:58;;;;;;;37.63;29.88;;;6.30;99.90;;;;;;2103558;28;20478;-73
2021/01/02 00:57:03;;;;;;;39.65;29.58;;;6.30;99.90;;;;;;2103878;28;20019;-73
2021/01/02 00:58:09;;;;;;;37.75;28.65;;;6.30;99.90;;;;;;2104307;28;20468;-74
2021/01/02 00:59:47;;;;;;;37.67;29.58;;;6.30;99.90;;;;;;2104538;28;20024;-74
2021/01/02 01:01:05;;;;;;;34.85;28.38;;;6.30;99.90;;;;;;2103851;28;20023;-73
2021/01/02 01:02:11;;;;;;;34.22;27.83;;;6.30;99.90;;;;;;2103987;28;20139;-74
2021/01/02 01:03:17;;;;;;;38.40;30.15;;;6.30;99.90;;;;;;2104173;28;20012;-73
2021/01/02 01:04:53;;;;;;;37.50;28.92;;;6.30;99.90;;;;;;2104398;28;20047;-74
2021/01/02 01:05:55;;;;;;;36.22;28.65;;;6.30;99.90;;;;;;2104604;28;20255;-73
2021/01/02 01:06:59;;;;;;;34.97;28.48;;;6.30;99.90;;;;;;2104368;28;20099;-74
2021/01/02 01:08:00;;;;;;;35.63;28.48;;;6.40;99.90;;;;;;2103638;28;20024;-74
2021/01/02 01:09:04;;;;;;;36.45;29.85;;;6.40;99.90;;;;;;2103792;28;20447;-74
2021/01/02 01:10:10;;;;;;;35.30;29.02;;;6.40;99.90;;;;;;2103676;28;20127;-74
2021/01/02 01:11:13;;;;;;;35.50;28.95;;;6.40;99.90;;;;;;2103946;28;20036;-74
2021/01/02 01:12:19;;;;;;;36.65;28.52;;;6.40;99.90;;;;;;2104483;28;20016;-74
2021/01/02 01:13:22;;;;;;;36.60;28.63;;;6.40;99.90;;;;;;2103940;28;20376;-74
2021/01/02 01:14:23;;;;;;;36.10;28.95;;;6.40;99.90;;;;;;2104482;28;20103;-75
2021/01/02 01:15:24;;;;;;;37.28;30.45;;;6.40;99.90;;;;;;2103890;28;20020;-74
2021/01/02 01:16:25;;;;;;;34.85;28.58;;;6.40;99.90;;;;;;2103693;28;20423;-74
2021/01/02 01:17:33;;;;;;;36.55;28.67;;;6.40;99.90;;;;;;2104131;28;20034;-75
2021/01/02 01:18:45;;;;;;;38.35;28.40;;;6.50;99.90;;;;;;2104597;28;20457;-74
2021/01/02 01:19:52;;;;;;;34.83;27.80;;;6.50;99.90;;;;;;2104341;28;20094;-74
2021/01/02 01:20:58;;;;;;;33.90;28.08;;;6.40;99.90;;;;;;2104433;28;20048;-74
2021/01/02 01:22:01;;;;;;;35.47;28.13;;;6.40;99.90;;;;;;2104299;28;20026;-74
2021/01/02 01:23:32;;;;;;;34.60;27.27;;;6.40;99.90;;;;;;2103969;28;20150;-74
2021/01/02 01:24:48;;;;;;;37.30;28.52;;;6.40;99.90;;;;;;2104232;28;20361;-75
2021/01/02 01:26:07;;;;;;;38.22;29.20;;;6.40;99.90;;;;;;2104421;28;20103;-73
2021/01/02 01:27:28;;;;;;;34.22;26.58;;;6.40;99.90;;;;;;2104267;28;20069;-74
2021/01/02 01:28:31;;;;;;;35.53;28.77;;;6.40;99.90;;;;;;2104316;28;20024;-76
2021/01/02 01:29:43;;;;;;;49.42;32.67;;;6.40;99.90;;;;;;2104089;28;20024;-74
2021/01/02 01:30:50;;;;;;;37.63;28.88;;;6.30;99.90;;;;;;2104422;28;20106;-75
2021/01/02 01:31:56;;;;;;;37.92;29.13;;;6.30;99.90;;;;;;2104149;28;20428;-75
2021/01/02 01:33:02;;;;;;;36.17;29.42;;;6.30;99.90;;;;;;2104344;28;20039;-74
2021/01/02 01:34:08;;;;;;;39.15;29.23;;;6.30;99.90;;;;;;2103525;28;20081;-74
2021/01/02 01:35:11;;;;;;;36.88;30.50;;;6.30;99.90;;;;;;2103895;28;20266;-76
2021/01/02 01:36:16;;;;;;;37.72;30.80;;;6.30;99.90;;;;;;2104277;28;20059;-76
2021/01/02 01:37:17;;;;;;;39.83;30.25;;;6.30;99.90;;;;;;2104137;28;20027;-75
2021/01/02 01:38:21;;;;;;;35.15;29.10;;;6.30;99.90;;;;;;2104093;28;20154;-75
2021/01/02 01:39:23;;;;;;;36.75;28.63;;;6.30;99.90;;;;;;2104425;28;20062;-75
2021/01/02 01:40:26;;;;;;;39.92;30.90;;;6.40;99.90;;;;;;2104134;28;20017;-74
2021/01/02 01:41:43;;;;;;;37.15;30.02;;;6.40;99.90;;;;;;2104283;28;20016;-75
2021/01/02 01:42:45;;;;;;;37.05;28.80;;;6.40;99.90;;;;;;2103580;28;20024;-75
2021/01/02 01:44:04;;;;;;;37.30;29.33;;;6.40;99.90;;;;;;2104213;28;20099;-74
2021/01/02 01:45:42;;;;;;;38.20;28.83;;;6.40;99.90;;;;;;2105946;28;20020;-75
2021/01/02 01:46:49;;;;;;;39.80;30.35;;;6.30;99.90;;;;;;2105820;28;20035;-75
2021/01/02 01:48:10;;;;;;;37.95;29.30;;;6.30;99.90;;;;;;2104946;28;20023;-74
2021/01/02 01:49:36;;;;;;;38.13;30.05;;;6.30;99.90;;;;;;2105322;28;20016;-74
2021/01/02 01:50:50;;;;;;;39.58;30.17;;;6.30;99.90;;;;;;2095902;28;20056;-74
2021/01/02 01:52:03;;;;;;;40.40;29.95;;;6.30;99.90;;;;;;2105715;28;20024;-75
2021/01/02 01:53:16;;;;;;;39.83;29.75;;;6.30;99.90;;;;;;2104580;28;20050;-75
2021/01/02 01:54:42;;;;;;;37.33;30.60;;;6.30;99.90;;;;;;2105425;28;20100;-75
2021/01/02 01:55:55;;;;;;;40.33;30.88;;;6.30;99.90;;;;;;2096062;28;20036;-74
2021/01/02 01:57:03;;;;;;;39.17;29.30;;;6.20;99.90;;;;;;2105278;28;20024;-75
2021/01/02 01:58:16;;;;;;;37.78;30.08;;;6.30;99.90;;;;;;2105201;28;20471;-74
2021/01/02 01:59:27;;;;;;;36.80;29.48;;;6.20;99.90;;;;;;2105694;28;20016;-74
2021/01/02 02:00:46;;;;;;;40.03;30.88;;;6.20;99.90;;;;;;2105619;28;20035;-75
2021/01/02 02:02:02;;;;;;;40.47;28.83;;;6.20;99.90;;;;;;2105763;28;20032;-74
2021/01/02 02:03:03;;;;;;;37.83;29.88;;;6.20;99.90;;;;;;2105350;28;20016;-75
2021/01/02 02:04:10;;;;;;;38.95;29.90;;;6.20;99.90;;;;;;2105748;28;20032;-75
2021/01/02 02:05:12;;;;;;;42.50;31.08;;;6.20;99.90;;;;;;2105771;28;20027;-75
2021/01/02 02:06:28;;;;;;;38.53;29.25;;;6.20;99.90;;;;;;2105665;28;20242;-75
2021/01/02 02:07:59;;;;;;;40.60;30.02;;;6.20;99.90;;;;;;2105501;28;20049;-74
2021/01/02 02:09:01;;;;;;;40.03;28.52;;;6.20;99.90;;;;;;2105988;28;20016;-75
2021/01/02 02:10:04;;;;;;;38.15;29.60;;;6.10;99.90;;;;;;2104850;28;20233;-74
2021/01/02 02:11:05;;;;;;;34.72;27.90;;;6.20;99.90;;;;;;2104998;28;20492;-74
2021/01/02 02:12:17;;;;;;;35.88;29.25;;;6.20;99.90;;;;;;2104897;28;20065;-73
2021/01/02 02:13:44;;;;;;;36.63;28.90;;;6.20;99.90;;;;;;2104788;28;20012;-74
2021/01/02 02:15:09;;;;;;;40.25;30.35;;;6.20;99.90;;;;;;2102995;28;20511;-74
2021/01/02 02:16:11;;;;;;;38.88;28.60;;;6.10;99.90;;;;;;2105113;28;20027;-74
2021/01/02 02:17:17;;;;;;;39.42;29.83;;;6.20;99.90;;;;;;2104845;28;20105;-74
2021/01/02 02:18:23;;;;;;;38.75;30.00;;;6.20;99.90;;;;;;2105341;28;20077;-74
2021/01/02 02:20:01;;;;;;;37.88;31.00;;;6.20;99.90;;;;;;2105399;28;20565;-76
2021/01/02 02:21:06;;;;;;;39.40;28.98;;;6.20;99.90;;;;;;2105573;28;20384;-75
2021/01/02 02:22:15;;;;;;;37.92;29.60;;;6.20;99.90;;;;;;2104953;28;20073;-75
2021/01/02 02:23:15;;;;;;;42.70;29.73;;;6.20;99.90;;;;;;2104769;28;20027;-74
2021/01/02 02:24:23;;;;;;;37.95;30.08;;;6.20;99.90;;;;;;2105268;28;20054;-75
2021/01/02 02:25:35;;;;;;;38.22;30.33;;;6.20;99.90;;;;;;2104956;28;20060;-75
2021/01/02 02:26:38;;;;;;;37.85;29.02;;;6.20;99.90;;;;;;2105120;28;20021;-74
2021/01/02 02:27:42;;;;;;;38.47;29.77;;;6.20;99.90;;;;;;2105296;28;20112;-74
2021/01/02 02:29:10;;;;;;;38.17;30.20;;;6.20;99.90;;;;;;2105358;28;20021;-74
2021/01/02 02:30:16;;;;;;;36.40;28.45;;;6.20;99.90;;;;;;2105441;28;20033;-74
2021/01/02 02:31:18;;;;;;;39.17;28.67;;;6.20;99.90;;;;;;2105488;28;20025;-75
2021/01/02 02:32:24;;;;;;;38.85;29.98;;;6.20;99.90;;;;;;2104430;28;20364;-74
2021/01/02 02:33:29;;;;;;;39.05;28.50;;;6.20;99.90;;;;;;2104630;28;20036;-74
2021/01/02 02:34:29;;;;;;;38.95;31.38;;;6.20;99.90;;;;;;2104681;28;20070;-74
2021/01/02 02:35:31;;;;;;;37.42;28.65;;;6.20;99.90;;;;;;2088538;28;20083;-74
2021/01/02 02:36:31;;;;;;;40.78;30.33;;;6.20;99.90;;;;;;2088073;28;20499;-74
2021/01/02 02:37:34;;;;;;;47.60;30.17;;;6.20;99.90;;;;;;2104624;28;20035;-74
2021/01/02 02:38:37;;;;;;;40.38;29.73;;;6.20;99.90;;;;;;2105170;28;20028;-75
2021/01/02 02:39:37;;;;;;;37.35;29.35;;;6.20;99.90;;;;;;2105249;28;20115;-75
2021/01/02 02:40:38;;;;;;;39.20;30.10;;;6.20;99.90;;;;;;2104977;28;20027;-75
2021/01/02 02:41:48;;;;;;;35.63;28.15;;;6.20;99.90;;;;;;2105419;28;20048;-75
2021/01/02 02:42:59;;;;;;;;;;;6.20;99.90;;;;;;2105785;28;20020;-74
2021/01/02 02:44:00;;;;;;;;;;;6.10;99.90;;;;;;2105553;28;19953;-75
2021/01/02 02:45:02;;;;;;;34.97;24.42;;;6.00;99.90;;;;;;2112909;28;19939;-75
2021/01/02 02:46:07;;;;;;;36.20;27.55;;;6.10;99.90;;;;;;2112876;28;20027;-75
2021/01/02 02:47:10;;;;;;;34.60;26.63;;;6.10;99.90;;;;;;2105196;28;20108;-74
2021/01/02 02:48:15;;;;;;;36.63;26.27;;;6.10;99.90;;;;;;2105270;28;20077;-74
2021/01/02 02:49:21;;;;;;;33.97;26.40;;;6.10;99.90;;;;;;2105255;28;20032;-75
2021/01/02 02:50:26;;;;;;;35.90;27.20;;;6.10;99.90;;;;;;2104638;28;20440;-75
2021/01/02 02:51:33;;;;;;;39.78;28.63;;;6.10;99.90;;;;;;2094259;28;20231;-74
2021/01/02 02:52:38;;;;;;;36.38;27.65;;;6.10;99.90;;;;;;2104558;28;20020;-75
2021/01/02 02:53:39;;;;;;;36.70;27.80;;;6.10;99.90;;;;;;2104480;28;20048;-75
2021/01/02 02:54:40;;;;;;;34.65;26.65;;;6.10;99.90;;;;;;2104872;28;20586;-74
2021/01/02 02:55:42;;;;;;;35.75;27.35;;;6.10;99.90;;;;;;2105115;28;20032;-75
2021/01/02 02:56:43;;;;;;;34.22;25.55;;;6.10;99.90;;;;;;2105247;28;20024;-75
2021/01/02 02:57:48;;;;;;;37.10;26.80;;;6.20;99.90;;;;;;2104326;28;20032;-74
2021/01/02 02:58:49;;;;;;;33.58;26.73;;;6.10;99.90;;;;;;2097079;28;20032;-75
2021/01/02 02:59:49;;;;;;;32.28;27.13;;;6.20;99.90;;;;;;2104362;28;20103;-75
2021/01/02 03:00:50;;;;;;;34.13;26.40;;;6.20;99.90;;;;;;2104821;28;20523;-75
2021/01/02 03:01:50;;;;;;;32.25;25.45;;;6.10;99.90;;;;;;2105208;28;20523;-75
2021/01/02 03:02:51;;;;;;;33.22;25.77;;;6.20;99.90;;;;;;2105840;28;20028;-74
2021/01/02 03:03:54;;;;;;;37.10;26.35;;;6.10;99.90;;;;;;2105360;28;20047;-74
2021/01/02 03:04:54;;;;;;;36.50;26.75;;;6.20;99.90;;;;;;2105871;28;20419;-74
2021/01/02 03:05:56;;;;;;;34.03;25.80;;;6.10;99.90;;;;;;2105741;28;20052;-74
2021/01/02 03:06:57;;;;;;;34.55;26.77;;;6.20;99.90;;;;;;2105178;28;20168;-75
2021/01/02 03:07:58;;;;;;;31.55;24.58;;;6.20;99.90;;;;;;2096958;28;20032;-74
2021/01/02 03:08:59;;;;;;;33.85;26.02;;;6.20;99.90;;;;;;2096593;28;20060;-75
2021/01/02 03:10:00;;;;;;;30.45;24.88;;;6.20;99.90;;;;;;2105102;28;20540;-75
2021/01/02 03:11:02;;;;;;;36.17;26.35;;;6.20;99.90;;;;;;2104986;28;20102;-74
2021/01/02 03:12:03;;;;;;;30.48;23.42;;;6.20;99.90;;;;;;2105075;28;20504;-74
2021/01/02 03:13:03;;;;;;;37.92;26.45;;;6.20;99.90;;;;;;2105331;28;20269;-74
2021/01/02 03:14:04;;;;;;;32.88;25.02;;;6.20;99.90;;;;;;2105284;28;20119;-76
2021/01/02 03:15:04;;;;;;;32.25;25.58;;;6.30;99.90;;;;;;2105247;28;20089;-74
2021/01/02 03:16:05;;;;;;;35.35;26.08;;;6.30;99.90;;;;;;2105123;28;20078;-75
2021/01/02 03:17:06;;;;;;;33.80;25.25;;;6.30;99.90;;;;;;2096360;28;20069;-74
2021/01/02 03:18:07;;;;;;;32.65;25.30;;;6.20;99.90;;;;;;2104985;28;20069;-75
2021/01/02 03:19:07;;;;;;;30.30;24.42;;;6.20;99.90;;;;;;2105437;28;20028;-75
2021/01/02 03:20:10;;;;;;;32.15;24.73;;;6.20;99.90;;;;;;2105350;28;20054;-74
2021/01/02 03:21:11;;;;;;;28.65;22.83;;;6.30;99.90;;;;;;2105514;28;20016;-75
2021/01/02 03:22:12;;;;;;;32.15;24.48;;;6.30;99.90;;;;;;2105841;28;20052;-74
2021/01/02 03:23:12;;;;;;;27.02;22.65;;;6.30;99.90;;;;;;2105139;28;20035;-75
2021/01/02 03:24:13;;;;;;;29.55;23.17;;;6.30;99.90;;;;;;2104999;28;20032;-75
2021/01/02 03:25:15;;;;;;;32.10;23.75;;;6.30;99.90;;;;;;2096483;28;20031;-75
2021/01/02 03:26:17;;;;;;;28.70;22.38;;;6.30;99.90;;;;;;2096864;28;20111;-74
2021/01/02 03:27:17;;;;;;;29.30;23.45;;;6.30;99.90;;;;;;2105309;28;20845;-74
2021/01/02 03:28:18;;;;;;;32.47;24.20;;;6.30;99.90;;;;;;2105637;28;20028;-74
2021/01/02 03:29:19;;;;;;;29.85;22.42;;;6.30;99.90;;;;;;2105783;28;20050;-75
2021/01/02 03:30:20;;;;;;;29.52;22.27;;;6.30;99.90;;;;;;2105637;28;20057;-75
2021/01/02 03:31:21;;;;;;;29.45;22.73;;;6.30;99.90;;;;;;2105899;28;20032;-74
2021/01/02 03:32:21;;;;;;;31.45;23.27;;;6.30;99.90;;;;;;2105411;28;20472;-74
2021/01/02 03:33:25;;;;;;;31.10;22.45;;;6.30;99.90;;;;;;2105079;28;20061;-75
2021/01/02 03:34:25;;;;;;;29.10;22.88;;;6.30;99.90;;;;;;2105611;28;20113;-75
2021/01/02 03:35:26;;;;;;;34.80;23.08;;;6.30;99.90;;;;;;2104724;28;20024;-74
2021/01/02 03:36:26;;;;;;;29.30;22.63;;;6.20;99.90;;;;;;2104793;28;20093;-75
2021/01/02 03:37:27;;;;;;;29.23;22.98;;;6.30;99.90;;;;;;2105517;28;20488;-75
2021/01/02 03:38:32;;;;;;;33.45;23.65;;;6.30;99.90;;;;;;2105382;28;20502;-75
2021/01/02 03:39:33;;;;;;;27.55;21.20;;;6.30;99.90;;;;;;2104570;28;20016;-75
2021/01/02 03:40:34;;;;;;;28.20;22.30;;;6.30;99.90;;;;;;2105082;28;20230;-74
2021/01/02 03:41:34;;;;;;;27.80;21.02;;;6.30;99.90;;;;;;2105646;28;20024;-74
2021/01/02 03:42:39;;;;;;;26.42;20.77;;;6.30;99.90;;;;;;2104788;28;20020;-74
2021/01/02 03:43:39;;;;;;;26.30;21.25;;;6.30;99.90;;;;;;2096699;28;20025;-74
2021/01/02 03:44:40;;;;;;;26.63;20.38;;;6.30;99.90;;;;;;2104791;28;20050;-75
2021/01/02 03:45:41;;;;;;;28.05;21.25;;;6.20;99.90;;;;;;2104859;28;20383;-75
2021/01/02 03:46:41;;;;;;;26.48;20.00;;;6.20;99.90;;;;;;2104757;28;20027;-74
2021/01/02 03:47:46;;;;;;;26.88;19.92;;;6.20;99.90;;;;;;2105567;28;20305;-75
2021/01/02 03:48:46;;;;;;;24.20;18.88;;;6.30;99.90;;;;;;2105699;28;20028;-75
2021/01/02 03:49:47;;;;;;;23.73;19.45;;;6.20;99.90;;;;;;2105467;28;20498;-74
2021/01/02 03:50:48;;;;;;;25.23;19.05;;;6.20;99.90;;;;;;2105417;28;20388;-74
2021/01/02 03:51:48;;;;;;;23.63;19.27;;;6.20;99.90;;;;;;2105682;28;20042;-75
2021/01/02 03:52:49;;;;;;;22.85;18.27;;;6.20;99.90;;;;;;2105417;28;20031;-74
2021/01/02 03:53:50;;;;;;;28.27;19.38;;;6.20;99.90;;;;;;2105060;28;20052;-76
2021/01/02 03:54:50;;;;;;;25.23;19.50;;;6.20;99.90;;;;;;2105512;28;20020;-75
2021/01/02 03:55:51;;;;;;;24.17;18.27;;;6.20;99.90;;;;;;2105363;28;20032;-73
2021/01/02 03:56:51;;;;;;;20.77;16.92;;;6.20;99.90;;;;;;2104548;28;20043;-75
2021/01/02 03:57:52;;;;;;;24.42;16.90;;;6.20;99.90;;;;;;2104794;28;20032;-75
2021/01/02 03:58:52;;;;;;;23.95;17.75;;;6.20;99.90;;;;;;2105414;28;20401;-75
2021/01/02 03:59:53;;;;;;;21.23;17.42;;;6.20;99.90;;;;;;2105295;28;20061;-74
2021/01/02 04:00:54;;;;;;;21.33;17.55;;;6.20;99.90;;;;;;2105473;28;20031;-75
2021/01/02 04:01:58;;;;;;;21.15;16.48;;;6.20;99.90;;;;;;2105052;28;20031;-75
2021/01/02 04:02:59;;;;;;;21.02;16.52;;;6.10;99.90;;;;;;2104383;28;20513;-76
2021/01/02 04:04:00;;;;;;;22.85;17.92;;;6.10;99.90;;;;;;2105059;28;20023;-74
2021/01/02 04:05:01;;;;;;;23.45;17.23;;;6.10;99.90;;;;;;2105051;28;20023;-74
2021/01/02 04:06:01;;;;;;;24.02;17.00;;;6.10;99.90;;;;;;2104532;28;20541;-75
2021/01/02 04:07:03;;;;;;;21.10;17.55;;;6.10;99.90;;;;;;2104600;28;20032;-73
2021/01/02 04:08:04;;;;;;;23.50;17.40;;;6.10;99.90;;;;;;2104340;28;20030;-76
2021/01/02 04:09:05;;;;;;;22.38;17.85;;;6.10;99.90;;;;;;2104144;28;20031;-74
2021/01/02 04:10:06;;;;;;;24.48;18.02;;;6.10;99.90;;;;;;2104814;28;20112;-74
2021/01/02 04:11:07;;;;;;;21.42;16.42;;;6.10;99.90;;;;;;2104337;28;20115;-75
2021/01/02 04:12:07;;;;;;;23.52;17.95;;;6.10;99.90;;;;;;2104731;28;20562;-74
2021/01/02 04:13:08;;;;;;;22.92;18.00;;;6.10;99.90;;;;;;2104265;28;20046;-74
2021/01/02 04:14:10;;;;;;;23.13;17.45;;;6.10;99.90;;;;;;2104835;28;20126;-74
2021/01/02 04:15:10;;;;;;;21.65;16.95;;;6.10;99.90;;;;;;2104471;28;20024;-74
2021/01/02 04:16:11;;;;;;;24.77;17.95;;;6.20;99.90;;;;;;2104801;28;20019;-73
2021/01/02 04:17:12;;;;;;;24.60;18.08;;;6.10;99.90;;;;;;2104744;28;20502;-74
2021/01/02 04:18:12;;;;;;;22.15;17.70;;;6.10;99.90;;;;;;2104538;28;20031;-74
2021/01/02 04:19:13;;;;;;;20.85;18.13;;;6.10;99.90;;;;;;2104666;28;20016;-74
2021/01/02 04:20:14;;;;;;;25.25;18.00;;;6.10;99.90;;;;;;2104823;28;20414;-74
2021/01/02 04:21:14;;;;;;;21.60;17.70;;;6.10;99.90;;;;;;2104617;28;20277;-75
2021/01/02 04:22:15;;;;;;;24.70;17.30;;;6.20;99.90;;;;;;2104714;28;20016;-75
2021/01/02 04:23:16;;;;;;;22.90;18.55;;;6.10;99.90;;;;;;2103514;28;20514;-75
2021/01/02 04:24:16;;;;;;;24.95;18.15;;;6.20;99.90;;;;;;2104035;28;20396;-74
2021/01/02 04:25:17;;;;;;;21.27;17.80;;;6.10;99.90;;;;;;2104553;28;20055;-75
2021/01/02 04:26:19;;;;;;;21.52;17.23;;;6.20;99.90;;;;;;2104492;28;20041;-74
2021/01/02 04:27:20;;;;;;;23.27;18.17;;;6.20;99.90;;;;;;2104490;28;20074;-75
2021/01/02 04:28:20;;;;;;;23.20;17.63;;;6.20;99.90;;;;;;2104557;28;20314;-75
2021/01/02 04:29:21;;;;;;;23.85;17.67;;;6.20;99.90;;;;;;2104577;28;20077;-74
2021/01/02 04:30:21;;;;;;;22.02;18.08;;;6.20;99.90;;;;;;2104615;28;20052;-74
2021/01/02 04:31:33;;;;;;;24.70;19.10;;;6.20;99.90;;;;;;2104662;28;20376;-74
2021/01/02 04:32:34;;;;;;;24.90;19.30;;;6.20;99.90;;;;;;2103981;28;20114;-75
2021/01/02 04:33:35;;;;;;;29.20;19.17;;;6.20;99.90;;;;;;2103575;28;20032;-74
2021/01/02 04:34:35;;;;;;;24.15;18.83;;;6.20;99.90;;;;;;2104823;28;20059;-75
2021/01/02 04:35:36;;;;;;;27.17;20.05;;;6.20;99.90;;;;;;2103643;28;20052;-75
2021/01/02 04:36:37;;;;;;;24.50;19.88;;;6.20;99.90;;;;;;2095607;28;20029;-74
2021/01/02 04:37:38;;;;;;;25.25;19.38;;;6.20;99.90;;;;;;2103985;28;20024;-74
2021/01/02 04:38:39;;;;;;;25.80;20.27;;;6.20;99.90;;;;;;2104543;28;20017;-75
2021/01/02 04:39:40;;;;;;;23.08;19.45;;;6.20;99.90;;;;;;2104599;28;20056;-75
2021/01/02 04:40:40;;;;;;;27.33;19.88;;;6.20;99.90;;;;;;2104777;28;20352;-74
2021/01/02 04:41:41;;;;;;;26.30;18.77;;;6.20;99.90;;;;;;2104533;28;20036;-75
2021/01/02 04:42:42;;;;;;;27.70;20.17;;;6.20;99.90;;;;;;2104524;28;20019;-75
2021/01/02 04:43:50;;;;;;;28.70;21.30;;;6.20;99.90;;;;;;2104333;28;20016;-74
2021/01/02 04:44:52;;;;;;;26.58;20.27;;;6.20;99.90;;;;;;2104414;28;20031;-74
2021/01/02 04:45:53;;;;;;;24.95;19.75;;;6.20;99.90;;;;;;2104525;28;20095;-75
2021/01/02 04:46:55;;;;;;;25.77;20.15;;;6.20;99.90;;;;;;2104417;28;20020;-73
2021/01/02 04:48:05;;;;;;;26.23;20.60;;;6.20;99.90;;;;;;2104554;28;20066;-74
2021/01/02 04:49:06;;;;;;;25.30;19.85;;;6.20;99.90;;;;;;2104538;28;20012;-75
2021/01/02 04:50:08;;;;;;;24.95;18.38;;;6.10;99.90;;;;;;2104538;28;20574;-74
2021/01/02 04:51:09;;;;;;;27.27;19.73;;;6.10;99.90;;;;;;2104209;28;20499;-74
2021/01/02 04:52:12;;;;;;;23.90;20.88;;;6.10;99.90;;;;;;2104048;28;20016;-75
2021/01/02 04:53:14;;;;;;;26.83;20.95;;;6.20;99.90;;;;;;2103321;28;20024;-75
2021/01/02 04:54:19;;;;;;;25.20;20.05;;;6.20;99.90;;;;;;2104184;28;20095;-75
2021/01/02 04:55:22;;;;;;;27.95;21.15;;;6.20;99.90;;;;;;2103969;28;20031;-74
2021/01/02 04:56:24;;;;;;;27.08;21.23;;;6.20;99.90;;;;;;2103851;28;20017;-75
2021/01/02 04:57:24;;;;;;;28.98;20.77;;;6.20;99.90;;;;;;2104565;28;20024;-74
2021/01/02 04:58:29;;;;;;;27.02;21.52;;;6.20;99.90;;;;;;2104407;28;20543;-74
2021/01/02 04:59:32;;;;;;;25.30;20.40;;;6.20;99.90;;;;;;2104570;28;20097;-74
2021/01/02 05:00:37;;;;;;;25.75;20.63;;;6.10;99.90;;;;;;2104468;28;20059;-75
2021/01/02 05:01:39;;;;;;;30.02;22.25;;;6.10;99.90;;;;;;2104915;28;20491;-74
2021/01/02 05:02:40;;;;;;;28.05;20.88;;;6.10;99.90;;;;;;2103769;28;20031;-75
2021/01/02 05:03:45;;;;;;;28.05;22.42;;;6.20;99.90;;;;;;2103610;28;20574;-74
2021/01/02 05:04:49;;;;;;;30.55;21.85;;;6.10;99.90;;;;;;2104455;28;20032;-74
2021/01/02 05:05:51;;;;;;;32.55;22.45;;;6.10;99.90;;;;;;2104832;28;20281;-74
2021/01/02 05:06:51;;;;;;;29.38;21.98;;;6.10;99.90;;;;;;2104367;28;20020;-74
2021/01/02 05:07:52;;;;;;;30.95;22.60;;;6.10;99.90;;;;;;2103641;28;20021;-75
2021/01/02 05:08:53;;;;;;;27.45;21.75;;;6.10;99.90;;;;;;2103908;28;20020;-74
2021/01/02 05:09:55;;;;;;;29.33;22.58;;;6.10;99.90;;;;;;2103705;28;20052;-74
2021/01/02 05:11:05;;;;;;;30.73;23.35;;;6.10;99.90;;;;;;2103576;28;20020;-74
2021/01/02 05:12:21;;;;;;;;;;;6.10;99.90;;;;;;2105128;28;20016;-74
2021/01/02 05:13:27;;;;;;;30.33;22.35;;;6.00;99.90;;;;;;2104235;28;19952;-74
2021/01/02 05:14:28;;;;;;;29.70;22.85;;;6.00;99.90;;;;;;2104000;28;20545;-74
2021/01/02 05:15:32;;;;;;;28.45;21.50;;;6.00;99.90;;;;;;2103552;28;20028;-74
2021/01/02 05:16:37;;;;;;;28.42;23.17;;;6.00;99.90;;;;;;2104509;28;20020;-74
2021/01/02 05:17:39;;;;;;;29.10;22.88;;;6.00;99.90;;;;;;2105180;28;20103;-74
2021/01/02 05:19:00;;;;;;;30.15;22.58;;;6.00;99.90;;;;;;2105804;28;20111;-74
2021/01/02 05:20:07;;;;;;;29.95;21.88;;;6.00;99.90;;;;;;2105840;28;20021;-75
2021/01/02 05:21:07;;;;;;;28.55;22.85;;;6.00;99.90;;;;;;2105963;28;20024;-75
2021/01/02 05:22:23;;;;;;;34.55;24.70;;;6.00;99.90;;;;;;2106181;28;20020;-74
2021/01/02 05:23:24;;;;;;;28.65;22.77;;;6.00;99.90;;;;;;2105851;28;20020;-75
2021/01/02 05:24:24;;;;;;;28.30;22.70;;;6.00;99.90;;;;;;2105971;28;20078;-74
2021/01/02 05:25:26;;;;;;;31.92;22.50;;;6.00;99.90;;;;;;2106054;28;20036;-73
2021/01/02 05:26:26;;;;;;;29.33;23.35;;;6.00;99.90;;;;;;2106016;28;20069;-74
2021/01/02 05:27:35;;;;;;;27.20;21.83;;;6.00;99.90;;;;;;2105755;28;20024;-74
2021/01/02 05:28:35;;;;;;;31.67;22.30;;;6.00;99.90;;;;;;2105933;28;20273;-74
2021/01/02 05:29:36;;;;;;;29.20;23.15;;;6.00;99.90;;;;;;2105276;28;20023;-74
2021/01/02 05:30:36;;;;;;;29.05;22.38;;;6.00;99.90;;;;;;2105355;28;20032;-75
2021/01/02 05:31:42;;;;;;;28.77;22.05;;;6.00;99.90;;;;;;2105815;28;20031;-75
2021/01/02 05:33:07;;;;;;;29.27;22.50;;;6.00;99.90;;;;;;2105984;28;20028;-74
2021/01/02 05:34:09;;;;;;;27.02;21.75;;;5.90;99.90;;;;;;2105891;28;20031;-75
2021/01/02 05:35:20;;;;;;;28.48;22.23;;;5.90;99.90;;;;;;2105277;28;20023;-75
2021/01/02 05:36:21;;;;;;;29.65;22.10;;;6.00;99.90;;;;;;2105456;28;20156;-74
2021/01/02 05:37:22;;;;;;;28.40;21.77;;;5.90;99.90;;;;;;2096765;28;20041;-74
2021/01/02 05:38:24;;;;;;;29.10;22.27;;;5.90;99.90;;;;;;2097001;28;20024;-75
2021/01/02 05:39:41;;;;;;;31.08;22.83;;;6.00;99.90;;;;;;2105863;28;20008;-74